Time;durP1;ratioP1;P1;durP2;ratioP2;P2;SDS_P1;SDS_P2;PMS_P1;PMS_P2;Temp;Humidity;BMP_temperature;BMP_pressure;BME280_temperature;BME280_humidity;BME280_pressure;Samples;Min_cycle;Max_cycle;Signal;HPM_P1;HPM_P2
2021/10/09 00:00:31;;;;;;;;;;;13.20;99.90;;;;;;5074913;28;19911;-72
2021/10/09 00:02:57;;;;;;;;;;;13.30;99.90;;;;;;5074635;28;19911;-71
2021/10/09 00:05:23;;;;;;;;;;;13.40;99.90;;;;;;5074602;28;19973;-72
2021/10/09 00:07:49;;;;;;;;;;;13.30;99.90;;;;;;5074899;28;19939;-72
2021/10/09 00:10:24;;;;;;;;;;;13.20;99.90;;;;;;5074372;28;19908;-72
2021/10/09 00:12:49;;;;;;;;;;;13.00;99.90;;;;;;5072741;28;19916;-72
2021/10/09 00:15:15;;;;;;;;;;;13.00;99.90;;;;;;5074943;28;20356;-71
2021/10/09 00:17:41;;;;;;;;;;;12.90;99.90;;;;;;5074321;28;20353;-72
2021/10/09 00:20:06;;;;;;;;;;;13.00;99.90;;;;;;5074702;28;20289;-72
2021/10/09 00:22:32;;;;;;;;;;;12.80;99.90;;;;;;5074808;28;19954;-72
2021/10/09 00:24:57;;;;;;;;;;;12.60;99.90;;;;;;5074200;28;19904;-72
2021/10/09 00:27:23;;;;;;;;;;;12.50;99.90;;;;;;5074144;28;19905;-71
2021/10/09 00:29:48;;;;;;;;;;;12.40;99.90;;;;;;5072793;28;19955;-71
2021/10/09 00:32:14;;;;;;;;;;;12.50;99.90;;;;;;5074091;28;19904;-71
2021/10/09 00:34:39;;;;;;;;;;;12.60;99.90;;;;;;5074316;28;20376;-71
2021/10/09 00:37:05;;;;;;;;;;;12.60;99.90;;;;;;5073995;28;19911;-72
2021/10/09 00:39:30;;;;;;;;;;;12.80;99.90;;;;;;5074552;28;19995;-71
2021/10/09 00:41:56;;;;;;;;;;;12.70;99.90;;;;;;5073941;28;20304;-72
2021/10/09 00:44:22;;;;;;;;;;;12.80;99.90;;;;;;5074221;28;19905;-71
2021/10/09 00:46:48;;;;;;;;;;;12.70;99.90;;;;;;5073874;28;19905;-72
2021/10/09 00:49:16;;;;;;;;;;;12.50;99.90;;;;;;5073893;28;19950;-72
2021/10/09 00:51:45;;;;;;;;;;;12.30;99.90;;;;;;5073761;28;19909;-72
2021/10/09 00:54:12;;;;;;;;;;;12.30;99.90;;;;;;5073801;28;19911;-72
2021/10/09 00:56:40;;;;;;;;;;;12.40;99.90;;;;;;5074087;28;19995;-72
2021/10/09 00:59:07;;;;;;;;;;;12.40;99.90;;;;;;5073865;28;19904;-72
2021/10/09 01:01:32;;;;;;;;;;;12.40;99.90;;;;;;5073784;28;19904;-72
2021/10/09 01:03:58;;;;;;;;;;;12.20;99.90;;;;;;5072457;28;20325;-73
2021/10/09 01:06:24;;;;;;;;;;;12.10;99.90;;;;;;5074339;28;19910;-72
2021/10/09 01:08:49;;;;;;;;;;;12.10;99.90;;;;;;5073470;28;20466;-72
2021/10/09 01:11:15;;;;;;;;;;;12.20;99.90;;;;;;5073654;28;19942;-71
2021/10/09 01:13:40;;;;;;;;;;;12.20;99.90;;;;;;5074205;28;19905;-72
2021/10/09 01:16:19;;;;;;;;;;;12.20;99.90;;;;;;5073909;28;19908;-71
2021/10/09 01:18:47;;;;;;;;;;;12.20;99.90;;;;;;5073608;28;19911;-72
2021/10/09 01:21:12;;;;;;;;;;;12.20;99.90;;;;;;5073743;28;19979;-71
2021/10/09 01:23:38;;;;;;;;;;;12.30;99.90;;;;;;5073474;28;19904;-71
2021/10/09 01:26:06;;;;;;;;;;;12.20;99.90;;;;;;5073785;28;19999;-71
2021/10/09 01:28:31;;;;;;;;;;;12.00;99.90;;;;;;5073480;28;20352;-72
2021/10/09 01:30:57;;;;;;;;;;;11.80;99.90;;;;;;5073393;28;19915;-71
2021/10/09 01:33:22;;;;;;;;;;;11.80;99.90;;;;;;5073431;28;19904;-72
2021/10/09 01:35:49;;;;;;;;;;;11.90;99.90;;;;;;5073430;28;19936;-71
2021/10/09 01:38:15;;;;;;;;;;;11.90;99.90;;;;;;5073704;28;19912;-71
2021/10/09 01:40:41;;;;;;;;;;;12.00;99.90;;;;;;5073337;28;19905;-71
2021/10/09 01:43:10;;;;;;;;;;;12.00;99.90;;;;;;5073905;28;20364;-72
2021/10/09 01:45:36;;;;;;;;;;;12.10;99.90;;;;;;5073322;28;19987;-72
2021/10/09 01:48:01;;;;;;;;;;;12.00;99.90;;;;;;5073330;28;19996;-72
2021/10/09 01:50:27;;;;;;;;;;;11.90;99.90;;;;;;5073260;28;19908;-72
2021/10/09 01:52:52;;;;;;;;;;;11.90;99.90;;;;;;5073820;28;20412;-71
2021/10/09 01:55:18;;;;;;;;;;;12.00;99.90;;;;;;5073203;28;19991;-71
2021/10/09 01:57:43;;;;;;;;;;;11.90;99.90;;;;;;5073203;28;19904;-71
2021/10/09 02:00:09;;;;;;;;;;;12.00;99.90;;;;;;5073426;28;19904;-71
2021/10/09 02:02:35;;;;;;;;;;;11.90;99.90;;;;;;5073035;28;19959;-71
2021/10/09 02:05:00;;;;;;;;;;;11.90;99.90;;;;;;5073142;28;19909;-71
2021/10/09 02:07:26;;;;;;;;;;;12.00;99.90;;;;;;5073137;28;20386;-71
2021/10/09 02:09:52;;;;;;;;;;;12.00;99.90;;;;;;5073045;28;19954;-71
2021/10/09 02:12:18;;;;;;;;;;;12.00;99.90;;;;;;5072877;28;19931;-72
2021/10/09 02:28:03;;;;;;;;;;;11.60;99.90;;;;;;5076467;28;19908;-71
2021/10/09 02:30:28;;;;;;;;;;;11.50;99.90;;;;;;5076364;28;20395;-71
2021/10/09 02:32:54;;;;;;;;;;;11.60;99.90;;;;;;5076662;28;19904;-71
2021/10/09 02:35:20;;;;;;;;;;;11.50;99.90;;;;;;5076599;28;20369;-71
2021/10/09 02:37:45;;;;;;;;;;;11.50;99.90;;;;;;5076307;28;19908;-72
2021/10/09 02:40:11;;;;;;;;;;;11.50;99.90;;;;;;5076169;28;20019;-72
2021/10/09 02:42:37;;;;;;;;;;;11.40;99.90;;;;;;5076733;28;19931;-72
2021/10/09 02:45:03;;;;;;;;;;;11.50;99.90;;;;;;5076169;28;20376;-72
2021/10/09 02:47:28;;;;;;;;;;;11.40;99.90;;;;;;5075970;28;20352;-72
2021/10/09 02:49:54;;;;;;;;;;;11.40;99.90;;;;;;5076275;28;19912;-71
2021/10/09 02:52:19;;;;;;;;;;;11.30;99.90;;;;;;5076061;28;19912;-72
2021/10/09 02:54:45;;;;;;;;;;;11.40;99.90;;;;;;5076337;28;19904;-71
2021/10/09 02:57:11;;;;;;;;;;;11.30;99.90;;;;;;5075996;28;20458;-72
2021/10/09 02:59:36;;;;;;;;;;;11.30;99.90;;;;;;5076193;28;20360;-71
2021/10/09 03:02:02;;;;;;;;;;;11.30;99.90;;;;;;5076155;28;19912;-71
2021/10/09 03:04:27;;;;;;;;;;;11.40;99.90;;;;;;5075833;28;19905;-72
2021/10/09 03:06:53;;;;;;;;;;;11.30;99.90;;;;;;5075770;28;19911;-72
2021/10/09 03:09:19;;;;;;;;;;;11.40;99.90;;;;;;5076025;28;19971;-72
2021/10/09 03:11:44;;;;;;;;;;;11.40;99.90;;;;;;5075436;28;20284;-71
2021/10/09 03:14:11;;;;;;;;;;;11.40;99.90;;;;;;5075834;28;19990;-72
2021/10/09 03:16:36;;;;;;;;;;;11.30;99.90;;;;;;5075880;28;20253;-72
2021/10/09 03:19:02;;;;;;;;;;;11.30;99.90;;;;;;5075501;28;20407;-72
2021/10/09 03:21:27;;;;;;;;;;;11.30;99.90;;;;;;5075416;28;19960;-72
2021/10/09 03:23:53;;;;;;;;;;;11.30;99.90;;;;;;5075409;28;19905;-71
2021/10/09 03:26:18;;;;;;;;;;;11.30;99.90;;;;;;5075364;28;19994;-71
2021/10/09 03:28:44;;;;;;;;;;;11.20;99.90;;;;;;5075322;28;19905;-71
2021/10/09 03:31:10;;;;;;;;;;;11.20;99.90;;;;;;5075712;28;19967;-72
2021/10/09 03:33:35;;;;;;;;;;;11.30;99.90;;;;;;5075521;28;19904;-72
2021/10/09 03:36:01;;;;;;;;;;;11.30;99.90;;;;;;5075774;28;19905;-72
2021/10/09 03:38:26;;;;;;;;;;;11.20;99.90;;;;;;5075148;28;19915;-71
2021/10/09 03:40:58;;;;;;;;;;;11.20;99.90;;;;;;5075100;28;19904;-72
2021/10/09 03:43:25;;;;;;;;;;;11.20;99.90;;;;;;5075372;28;19904;-72
2021/10/09 03:53:35;;;;;;;;;;;11.10;99.90;;;;;;5075141;28;20417;-71
2021/10/09 03:56:01;;;;;;;;;;;11.10;99.90;;;;;;5074782;28;19995;-71
2021/10/09 03:58:27;;;;;;;;;;;11.10;99.90;;;;;;5074721;28;19916;-72
2021/10/09 04:00:52;;;;;;;;;;;11.00;99.90;;;;;;5074667;28;19989;-71
2021/10/09 04:03:18;;;;;;;;;;;10.80;99.90;;;;;;5074886;28;19954;-72
2021/10/09 04:05:43;;;;;;;;;;;10.80;99.90;;;;;;5074590;28;19912;-71
2021/10/09 04:08:09;;;;;;;;;;;10.90;99.90;;;;;;5075097;28;19912;-71
2021/10/09 04:10:35;;;;;;;;;;;11.00;99.90;;;;;;5074391;28;20352;-72
2021/10/09 04:13:01;;;;;;;;;;;10.90;99.90;;;;;;5074026;28;20007;-72
2021/10/09 04:15:27;;;;;;;;;;;10.70;99.90;;;;;;5074677;28;20328;-71
2021/10/09 04:17:52;;;;;;;;;;;10.80;99.90;;;;;;5074334;28;20274;-72
2021/10/09 04:20:18;;;;;;;;;;;10.70;99.90;;;;;;5074258;28;19951;-71
2021/10/09 04:22:43;;;;;;;;;;;10.70;99.90;;;;;;5074870;28;19987;-72
2021/10/09 04:25:09;;;;;;;;;;;10.80;99.90;;;;;;5074511;28;19943;-72
2021/10/09 04:27:35;;;;;;;;;;;11.00;99.90;;;;;;5074199;28;19970;-72
2021/10/09 04:30:03;;;;;;;;;;;10.90;99.90;;;;;;5074361;28;19908;-71
2021/10/09 04:32:29;;;;;;;;;;;10.90;99.90;;;;;;5074087;28;19912;-72
2021/10/09 04:34:54;;;;;;;;;;;10.90;99.90;;;;;;5074058;28;19904;-71
2021/10/09 04:37:20;;;;;;;;;;;10.90;99.90;;;;;;5074618;28;19987;-72
2021/10/09 04:39:46;;;;;;;;;;;10.80;99.90;;;;;;5073967;28;20434;-71
2021/10/09 04:42:11;;;;;;;;;;;10.70;99.90;;;;;;5074009;28;19930;-72
2021/10/09 04:44:37;;;;;;;;;;;10.70;99.90;;;;;;5073764;28;19980;-72
2021/10/09 04:47:02;;;;;;;;;;;10.70;99.90;;;;;;5073907;28;19904;-71
2021/10/09 04:49:28;;;;;;;;;;;10.50;99.90;;;;;;5073860;28;19911;-72
2021/10/09 04:51:53;;;;;;;;;;;10.40;99.90;;;;;;5074369;28;19908;-71
2021/10/09 04:54:19;;;;;;;;;;;10.40;99.90;;;;;;5073868;28;19954;-72
2021/10/09 04:56:44;;;;;;;;;;;10.40;99.90;;;;;;5074114;28;19911;-71
2021/10/09 04:59:10;;;;;;;;;;;10.50;99.90;;;;;;5073775;28;20361;-71
2021/10/09 05:01:35;;;;;;;;;;;10.40;99.90;;;;;;5073732;28;19999;-71
2021/10/09 05:04:01;;;;;;;;;;;10.30;99.90;;;;;;5073732;28;19908;-71
2021/10/09 05:06:26;;;;;;;;;;;10.50;99.90;;;;;;5074000;28;20049;-72
2021/10/09 05:08:52;;;;;;;;;;;10.50;99.90;;;;;;5073681;28;19904;-71
2021/10/09 05:11:18;;;;;;;;;;;10.60;99.90;;;;;;5073631;28;19924;-72
2021/10/09 05:13:43;;;;;;;;;;;10.60;99.90;;;;;;5073666;28;19911;-72
2021/10/09 05:16:09;;;;;;;;;;;10.60;99.90;;;;;;5073629;28;20003;-72
2021/10/09 05:18:34;;;;;;;;;;;10.60;99.90;;;;;;5073588;28;19911;-73
2021/10/09 05:21:00;;;;;;;;;;;10.80;99.90;;;;;;5073477;28;19915;-72
2021/10/09 05:23:27;;;;;;;;;;;10.80;99.90;;;;;;5073553;28;19904;-72
2021/10/09 05:25:53;;;;;;;;;;;10.80;99.90;;;;;;5073770;28;19904;-72
2021/10/09 05:28:23;;;;;;;;;;;10.60;99.90;;;;;;5073495;28;20257;-72
2021/10/09 05:30:49;;;;;;;;;;;10.50;99.90;;;;;;5074321;28;20247;-72
2021/10/09 05:33:36;;;;;;;;;;;10.40;99.90;;;;;;5073463;28;19908;-71
2021/10/09 05:36:02;;;;;;;;;;;10.30;99.90;;;;;;5073722;28;19969;-72
2021/10/09 05:38:28;;;;;;;;;;;10.30;99.90;;;;;;5073416;28;19905;-71
2021/10/09 05:40:55;;;;;;;;;;;10.20;99.90;;;;;;5073703;28;20336;-71
2021/10/09 05:43:21;;;;;;;;;;;10.30;99.90;;;;;;5073338;28;19912;-72
2021/10/09 05:45:47;;;;;;;;;;;10.30;99.90;;;;;;5073333;28;19908;-72
2021/10/09 05:48:12;;;;;;;;;;;10.30;99.90;;;;;;5073307;28;19911;-72
2021/10/09 05:56:14;;;;;;;;;;;10.30;99.90;;;;;;5075317;28;19915;-72
2021/10/09 06:47:14;;;;;;;;;;;10.00;99.90;;;;;;5076487;28;19911;-71
2021/10/09 07:00:37;;;;;;;;;;;10.20;99.90;;;;;;5075683;28;20307;-71
2021/10/09 07:03:02;;;;;;;;;;;10.30;99.90;;;;;;5075901;28;19905;-71
2021/10/09 07:05:29;;;;;;;;;;;10.30;99.90;;;;;;5075730;28;20356;-71
2021/10/09 07:07:57;;;;;;;;;;;10.30;99.90;;;;;;5075555;28;19905;-70
2021/10/09 07:10:23;;;;;;;;;;;10.30;99.90;;;;;;5074376;28;19908;-71
2021/10/09 07:12:48;;;;;;;;;;;10.20;99.90;;;;;;5075156;28;20335;-70
2021/10/09 07:15:18;;;;;;;;;;;10.10;99.90;;;;;;5075632;28;19904;-71
2021/10/09 07:17:45;;;;;;;;;;;10.30;99.90;;;;;;5075563;28;19905;-72
2021/10/09 07:20:11;;;;;;;;;;;10.30;99.90;;;;;;5074198;28;19904;-72
2021/10/09 07:22:36;;;;;;;;;;;10.40;99.90;;;;;;5075481;28;19951;-71
2021/10/09 07:25:03;;;;;;;;;;;10.50;99.90;;;;;;5075758;28;19912;-71
2021/10/09 07:27:28;;;;;;;;;;;10.60;99.90;;;;;;5075379;28;20364;-71
2021/10/09 07:29:54;;;;;;;;;;;10.60;99.90;;;;;;5075546;28;20014;-72
2021/10/09 07:32:20;;;;;;;;;;;10.70;99.90;;;;;;5075273;28;19904;-71
2021/10/09 07:34:45;;;;;;;;;;;10.80;99.90;;;;;;5075278;28;19942;-72
2021/10/09 07:37:11;;;;;;;;;;;10.90;99.90;;;;;;5075227;28;19909;-71
2021/10/09 07:39:37;;;;;;;;;;;10.80;99.90;;;;;;5075463;28;19908;-72
2021/10/09 07:42:02;;;;;;;;;;;11.00;99.90;;;;;;5075121;28;19904;-72
2021/10/09 07:44:28;;;;;;;;;;;11.00;99.90;;;;;;5075672;28;20280;-72
2021/10/09 07:46:55;;;;;;;;;;;11.00;99.90;;;;;;5075049;28;19989;-71
2021/10/09 07:49:20;;;;;;;;;;;11.20;99.90;;;;;;5075293;28;19904;-72
2021/10/09 07:51:46;;;;;;;;;;;11.20;99.90;;;;;;5074877;28;20269;-71
2021/10/09 07:54:12;;;;;;;;;;;11.40;99.90;;;;;;5075405;28;19935;-71
2021/10/09 07:56:38;;;;;;;;;;;11.40;99.90;;;;;;5073562;28;19905;-71
2021/10/09 07:59:03;;;;;;;;;;;11.50;99.90;;;;;;5075023;28;19904;-71
2021/10/09 08:01:31;;;;;;;;;;;11.70;99.90;;;;;;5074691;28;19905;-72
2021/10/09 08:03:57;;;;;;;;;;;11.80;99.90;;;;;;5074665;28;20009;-71
2021/10/09 08:06:23;;;;;;;;;;;11.90;99.90;;;;;;5075154;28;20025;-72
2021/10/09 08:08:49;;;;;;;;;;;11.90;99.90;;;;;;5074539;28;19908;-72
2021/10/09 08:11:14;;;;;;;;;;;12.30;99.90;;;;;;5074247;28;19917;-72
2021/10/09 08:13:40;;;;;;;;;;;12.50;99.90;;;;;;5074791;28;20342;-72
2021/10/09 08:16:05;;;;;;;;;;;13.00;99.90;;;;;;5074707;28;19926;-72
2021/10/09 08:18:31;;;;;;;;;;;13.30;99.90;;;;;;5074223;28;19912;-72
2021/10/09 08:21:03;;;;;;;;;;;13.50;99.90;;;;;;5074258;28;20005;-73
2021/10/09 08:23:33;;;;;;;;;;;13.80;99.90;;;;;;5074918;28;19954;-79
2021/10/09 08:39:41;;;;;;;;;;;15.40;99.90;;;;;;5067010;28;20395;-73
2021/10/09 08:42:08;;;;;;;;;;;15.80;99.90;;;;;;5091028;28;19907;-73
2021/10/09 08:44:34;;;;;;;;;;;16.00;99.90;;;;;;5094182;28;19999;-73
2021/10/09 08:47:00;;;;;;;;;;;16.30;99.90;;;;;;5094728;28;20046;-73
2021/10/09 08:49:26;;;;;;;;;;;16.50;99.90;;;;;;5089819;28;19915;-73
2021/10/09 08:51:51;;;;;;;;;;;17.00;99.90;;;;;;5073835;28;19915;-75
2021/10/09 08:54:17;;;;;;;;;;;17.30;99.90;;;;;;5073827;28;19908;-73
2021/10/09 08:56:45;;;;;;;;;;;17.50;99.90;;;;;;5074353;28;20360;-83
2021/10/09 08:59:24;;;;;;;;;;;17.80;99.90;;;;;;5077588;28;20384;-73
2021/10/09 09:02:10;;;;;;;;;;;18.00;99.90;;;;;;5094287;28;20044;-73
2021/10/09 09:34:50;;;;;;;;;;;20.70;95.80;;;;;;5077626;28;19911;-78
2021/10/09 09:37:39;;;;;;;;;;;20.50;96.40;;;;;;5085506;28;19956;-74
2021/10/09 09:40:07;;;;;;;;;;;20.40;96.70;;;;;;5084812;28;19908;-72
2021/10/09 09:42:41;;;;;;;;;;;20.50;97.50;;;;;;5090957;28;19904;-75
2021/10/09 09:45:10;;;;;;;;;;;20.80;96.20;;;;;;5089864;28;20360;-74
2021/10/09 09:47:42;;;;;;;;;;;20.80;96.30;;;;;;5097574;28;19903;-75
2021/10/09 09:50:09;;;;;;;;;;;21.00;95.90;;;;;;5097475;28;19950;-74
2021/10/09 09:52:42;;;;;;;;;;;21.20;95.20;;;;;;5097714;28;19904;-72
2021/10/09 09:55:08;;;;;;;;;;;21.30;94.60;;;;;;5097395;28;19908;-86
2021/10/09 09:57:35;;;;;;;;;;;21.40;94.30;;;;;;5097356;28;19910;-74
2021/10/09 10:00:03;;;;;;;;;;;21.40;94.60;;;;;;5097550;28;20352;-79
2021/10/09 10:02:29;;;;;;;;;;;21.20;95.60;;;;;;5097466;28;19953;-78
2021/10/09 10:04:55;;;;;;;;;;;20.70;95.70;;;;;;5097220;28;19904;-75
2021/10/09 10:07:21;;;;;;;;;;;20.50;97.10;;;;;;5097822;28;19953;-75
2021/10/09 10:09:48;;;;;;;;;;;20.40;97.30;;;;;;5097057;28;19947;-74
2021/10/09 10:12:13;;;;;;;;;;;20.40;97.10;;;;;;5096792;28;19916;-74
2021/10/09 10:14:42;;;;;;;;;;;20.20;97.50;;;;;;5097059;28;19930;-74
2021/10/09 10:17:08;;;;;;;;;;;20.10;98.00;;;;;;5097561;28;20323;-74
2021/10/09 10:19:49;;;;;;;;;;;19.90;99.60;;;;;;5097420;28;19957;-74
2021/10/09 10:22:15;;;;;;;;;;;19.60;99.90;;;;;;5095594;28;20298;-74
2021/10/09 10:24:41;;;;;;;;;;;19.50;99.90;;;;;;5096908;28;19995;-75
2021/10/09 10:27:25;;;;;;;;;;;19.30;99.90;;;;;;5096859;28;19904;-74
2021/10/09 10:30:10;;;;;;;;;;;19.10;99.90;;;;;;5096706;28;20314;-74
2021/10/09 10:32:36;;;;;;;;;;;19.20;99.90;;;;;;5096855;28;19951;-73
2021/10/09 10:35:21;;;;;;;;;;;19.20;99.90;;;;;;5095544;28;19947;-73
2021/10/09 10:37:47;;;;;;;;;;;19.20;99.90;;;;;;5095546;28;19946;-73
2021/10/09 10:40:32;;;;;;;;;;;19.10;99.90;;;;;;5096509;28;19942;-73
2021/10/09 10:42:58;;;;;;;;;;;19.10;99.90;;;;;;5096233;28;19935;-73
2021/10/09 10:45:35;;;;;;;;;;;19.00;99.90;;;;;;5096897;28;19912;-73
2021/10/09 10:50:58;;;;;;;;;;;18.80;99.90;;;;;;5096122;28;20010;-73
2021/10/09 10:53:48;;;;;;;;;;;18.80;99.90;;;;;;5095318;28;20431;-74
2021/10/09 10:56:14;;;;;;;;;;;18.70;99.90;;;;;;5095852;28;19974;-73
2021/10/09 10:58:39;;;;;;;;;;;18.60;99.90;;;;;;5096173;28;20421;-73
2021/10/09 11:01:15;;;;;;;;;;;18.40;99.90;;;;;;5096097;28;19904;-73
2021/10/09 11:03:51;;;;;;;;;;;18.30;99.90;;;;;;5096424;28;19904;-73
2021/10/09 11:06:17;;;;;;;;;;;18.10;99.90;;;;;;5096363;28;20450;-74
2021/10/09 11:08:44;;;;;;;;;;;18.00;99.90;;;;;;5095961;28;19905;-73
2021/10/09 11:11:09;;;;;;;;;;;18.00;99.90;;;;;;5095943;28;19920;-73
2021/10/09 11:13:35;;;;;;;;;;;17.90;99.90;;;;;;5096567;28;19946;-72
2021/10/09 11:16:03;;;;;;;;;;;17.90;99.90;;;;;;5095906;28;19908;-73
2021/10/09 11:18:28;;;;;;;;;;;17.80;99.90;;;;;;5096194;28;19911;-73
2021/10/09 11:20:58;;;;;;;;;;;17.80;99.90;;;;;;5095732;28;19904;-73
2021/10/09 11:23:23;;;;;;;;;;;17.90;99.90;;;;;;5095758;28;19945;-72
2021/10/09 11:25:49;;;;;;;;;;;17.90;99.90;;;;;;5096018;28;19904;-73
2021/10/09 11:28:22;;;;;;;;;;;18.00;99.90;;;;;;5095683;28;19904;-73
2021/10/09 11:30:48;;;;;;;;;;;18.00;99.90;;;;;;5095783;28;19908;-73
2021/10/09 11:33:14;;;;;;;;;;;17.90;99.90;;;;;;5095553;28;20374;-73
2021/10/09 11:35:40;;;;;;;;;;;18.00;99.90;;;;;;5095517;28;19904;-73
2021/10/09 11:38:21;;;;;;;;;;;18.00;99.90;;;;;;5095450;28;19904;-73
2021/10/09 11:43:26;;;;;;;;;;;18.00;99.90;;;;;;5095654;28;20378;-72
2021/10/09 11:56:45;;;;;;;;;;;18.00;99.90;;;;;;5094857;28;19973;-73
2021/10/09 11:59:11;;;;;;;;;;;18.00;99.90;;;;;;5095346;28;19953;-74
2021/10/09 12:01:44;;;;;;;;;;;18.00;99.90;;;;;;5094977;28;19908;-72
2021/10/09 12:04:13;;;;;;;;;;;18.10;99.90;;;;;;5095217;28;19939;-72
2021/10/09 12:06:43;;;;;;;;;;;18.10;99.90;;;;;;5094877;28;19904;-73
2021/10/09 12:09:09;;;;;;;;;;;18.20;99.90;;;;;;5095178;28;19958;-73
2021/10/09 12:11:35;;;;;;;;;;;18.20;99.90;;;;;;5094551;28;20006;-72
2021/10/09 12:14:02;;;;;;;;;;;18.10;99.90;;;;;;5094736;28;19939;-73
2021/10/09 12:16:30;;;;;;;;;;;18.20;99.90;;;;;;5094740;28;19911;-73
2021/10/09 12:19:22;;;;;;;;;;;18.30;99.90;;;;;;5094665;28;19904;-73
2021/10/09 12:21:51;;;;;;;;;;;18.30;99.90;;;;;;5092325;28;20463;-72
2021/10/09 12:24:18;;;;;;;;;;;18.30;99.90;;;;;;5095172;28;19908;-73
2021/10/09 12:26:59;;;;;;;;;;;18.40;99.90;;;;;;5094569;28;19916;-72
2021/10/09 12:29:25;;;;;;;;;;;18.40;99.90;;;;;;5094792;28;19953;-73
2021/10/09 12:31:50;;;;;;;;;;;18.40;99.90;;;;;;5094375;28;20271;-73
2021/10/09 12:34:26;;;;;;;;;;;18.40;99.90;;;;;;5094453;28;20402;-73
2021/10/09 12:37:07;;;;;;;;;;;18.40;99.90;;;;;;5094370;28;20330;-72
2021/10/09 12:39:33;;;;;;;;;;;18.40;99.90;;;;;;5094313;28;19938;-73
2021/10/09 12:41:59;;;;;;;;;;;18.50;99.90;;;;;;5092995;28;19904;-73
2021/10/09 12:44:24;;;;;;;;;;;18.50;99.90;;;;;;5094244;28;19927;-73
2021/10/09 12:46:50;;;;;;;;;;;18.50;99.90;;;;;;5094797;28;19904;-73
2021/10/09 12:49:16;;;;;;;;;;;18.50;99.90;;;;;;5094204;28;19911;-73
2021/10/09 12:51:42;;;;;;;;;;;18.60;99.90;;;;;;5092822;28;20376;-74
2021/10/09 12:54:08;;;;;;;;;;;18.60;99.90;;;;;;5094112;28;19935;-73
2021/10/09 12:56:35;;;;;;;;;;;18.60;99.90;;;;;;5094078;28;19904;-73
2021/10/09 12:59:02;;;;;;;;;;;18.60;99.90;;;;;;5094079;28;20367;-73
2021/10/09 13:01:28;;;;;;;;;;;18.60;99.90;;;;;;5094016;28;19908;-73
2021/10/09 13:03:53;;;;;;;;;;;18.60;99.90;;;;;;5093601;28;19911;-74
2021/10/09 13:06:19;;;;;;;;;;;18.60;99.90;;;;;;5093932;28;19904;-72
2021/10/09 13:08:44;;;;;;;;;;;18.70;99.90;;;;;;5094194;28;19904;-74
2021/10/09 13:11:10;;;;;;;;;;;18.70;99.90;;;;;;5093647;28;19923;-73
2021/10/09 13:13:36;;;;;;;;;;;18.70;99.90;;;;;;5094216;28;19937;-72
2021/10/09 13:16:01;;;;;;;;;;;18.70;99.90;;;;;;5093816;28;19911;-73
2021/10/09 13:18:27;;;;;;;;;;;18.80;99.90;;;;;;5092509;28;19934;-72
2021/10/09 13:20:52;;;;;;;;;;;18.70;99.90;;;;;;5092416;28;19942;-73
2021/10/09 13:23:18;;;;;;;;;;;18.70;99.90;;;;;;5092432;28;19904;-74
2021/10/09 13:25:44;;;;;;;;;;;18.80;99.90;;;;;;5093970;28;19968;-73
2021/10/09 13:28:10;;;;;;;;;;;18.80;99.90;;;;;;5093723;28;19997;-73
2021/10/09 13:30:35;;;;;;;;;;;18.90;99.90;;;;;;5093676;28;19974;-73
2021/10/09 13:33:01;;;;;;;;;;;18.90;99.90;;;;;;5093661;28;19908;-73
2021/10/09 13:35:26;;;;;;;;;;;19.00;99.90;;;;;;5093622;28;19904;-73
2021/10/09 13:37:54;;;;;;;;;;;19.10;99.90;;;;;;5093877;28;19989;-73
2021/10/09 13:40:20;;;;;;;;;;;19.00;99.90;;;;;;5093582;28;20353;-74
2021/10/09 13:42:46;;;;;;;;;;;19.00;99.90;;;;;;5093595;28;19949;-73
2021/10/09 13:45:11;;;;;;;;;;;19.00;99.90;;;;;;5093558;28;19904;-73
2021/10/09 13:47:37;;;;;;;;;;;19.00;99.90;;;;;;5093501;28;19907;-73
2021/10/09 13:50:03;;;;;;;;;;;19.00;99.90;;;;;;5094105;28;19991;-74
2021/10/09 13:52:28;;;;;;;;;;;19.00;99.90;;;;;;5093425;28;19908;-73
2021/10/09 13:54:54;;;;;;;;;;;19.00;99.90;;;;;;5093448;28;20326;-74
2021/10/09 13:57:19;;;;;;;;;;;19.00;99.90;;;;;;5093740;28;19949;-73
2021/10/09 13:59:45;;;;;;;;;;;19.10;99.90;;;;;;5093417;28;19904;-73
2021/10/09 14:02:11;;;;;;;;;;;19.10;99.90;;;;;;5093426;28;19904;-73
2021/10/09 14:04:38;;;;;;;;;;;19.10;99.90;;;;;;5093973;28;20378;-73
2021/10/09 14:07:04;;;;;;;;;;;19.10;99.90;;;;;;5092114;28;19904;-72
2021/10/09 14:09:29;;;;;;;;;;;19.10;99.90;;;;;;5093939;28;19904;-72
2021/10/09 14:11:55;;;;;;;;;;;19.00;99.90;;;;;;5093072;28;19916;-73
2021/10/09 14:14:24;;;;;;;;;;;19.00;99.90;;;;;;5093368;28;19956;-73
2021/10/09 14:16:50;;;;;;;;;;;19.00;99.90;;;;;;5095064;28;19904;-73
2021/10/09 14:19:15;;;;;;;;;;;19.00;99.90;;;;;;5097304;28;19953;-74
2021/10/09 14:21:41;;;;;;;;;;;19.00;99.90;;;;;;5095652;28;19918;-72
2021/10/09 14:24:06;;;;;;;;;;;19.00;99.90;;;;;;5096943;28;19904;-72
2021/10/09 14:26:33;;;;;;;;;;;19.10;99.90;;;;;;5096890;28;19904;-73
2021/10/09 14:28:58;;;;;;;;;;;19.10;99.90;;;;;;5095254;28;19904;-73
2021/10/09 14:31:24;;;;;;;;;;;19.10;99.90;;;;;;5096743;28;19908;-73
2021/10/09 14:33:49;;;;;;;;;;;19.00;99.90;;;;;;5097054;28;19903;-72
2021/10/09 14:36:15;;;;;;;;;;;19.00;99.90;;;;;;5096553;28;20364;-72
2021/10/09 14:38:40;;;;;;;;;;;19.00;99.90;;;;;;5096617;28;19957;-72
2021/10/09 14:41:06;;;;;;;;;;;18.90;99.90;;;;;;5096890;28;20041;-74
2021/10/09 14:43:35;;;;;;;;;;;19.00;99.90;;;;;;5096543;28;20423;-72
2021/10/09 14:46:23;;;;;;;;;;;18.90;99.90;;;;;;5096529;28;19957;-73
2021/10/09 14:48:47;;;;;;;;;;;19.00;99.90;;;;;;5096379;28;20375;-73
2021/10/09 14:51:22;;;;;;;;;;;18.90;99.90;;;;;;5096647;28;20328;-73
2021/10/09 15:18:19;;;;;;;;;;;18.80;99.30;;;;;;5095963;28;19911;-73
2021/10/09 15:20:45;;;;;;;;;;;18.80;99.70;;;;;;5096106;28;20364;-73
2021/10/09 15:23:10;;;;;;;;;;;18.80;99.90;;;;;;5095821;28;19904;-72
2021/10/09 15:25:36;;;;;;;;;;;18.80;99.10;;;;;;5096030;28;19904;-74
2021/10/09 15:28:01;;;;;;;;;;;18.80;98.90;;;;;;5095410;28;19998;-73
2021/10/09 15:30:27;;;;;;;;;;;18.80;99.20;;;;;;5095804;28;19916;-73
2021/10/09 15:32:53;;;;;;;;;;;18.80;99.90;;;;;;5095451;28;19999;-74
2021/10/09 15:35:18;;;;;;;;;;;18.70;99.90;;;;;;5095558;28;20356;-73
2021/10/09 15:37:44;;;;;;;;;;;18.70;99.90;;;;;;5096039;28;19904;-73
2021/10/09 15:40:10;;;;;;;;;;;18.70;99.40;;;;;;5095411;28;19904;-74
2021/10/09 15:42:35;;;;;;;;;;;18.70;99.10;;;;;;5095658;28;20426;-72
2021/10/09 15:45:01;;;;;;;;;;;18.70;99.00;;;;;;5095349;28;19959;-73
2021/10/09 15:47:26;;;;;;;;;;;18.60;99.10;;;;;;5095864;28;19908;-73
2021/10/09 15:49:53;;;;;;;;;;;18.60;97.80;;;;;;5095538;28;19994;-74
2021/10/09 15:52:18;;;;;;;;;;;18.60;97.40;;;;;;5095710;28;19973;-74
2021/10/09 15:54:44;;;;;;;;;;;18.60;97.10;;;;;;5095227;28;19904;-73
2021/10/09 15:57:09;;;;;;;;;;;18.50;97.40;;;;;;5095141;28;19904;-74
2021/10/09 15:59:35;;;;;;;;;;;18.50;97.40;;;;;;5095138;28;19911;-73
2021/10/09 16:02:01;;;;;;;;;;;18.50;98.20;;;;;;5095058;28;20287;-74
2021/10/09 16:04:26;;;;;;;;;;;18.40;98.50;;;;;;5095029;28;19908;-74
2021/10/09 16:06:55;;;;;;;;;;;18.40;99.10;;;;;;5094945;28;19904;-74
2021/10/09 16:09:21;;;;;;;;;;;18.40;99.10;;;;;;5095195;28;20383;-73
2021/10/09 16:11:46;;;;;;;;;;;18.40;98.90;;;;;;5094586;28;19916;-74
2021/10/09 16:14:12;;;;;;;;;;;18.40;99.00;;;;;;5095077;28;19904;-74
2021/10/09 16:16:37;;;;;;;;;;;18.30;99.00;;;;;;5094764;28;19908;-74
2021/10/09 16:19:04;;;;;;;;;;;18.30;99.50;;;;;;5095039;28;19908;-73
2021/10/09 16:21:29;;;;;;;;;;;18.20;99.30;;;;;;5094633;28;19904;-73
2021/10/09 16:23:55;;;;;;;;;;;18.20;99.10;;;;;;5094669;28;19911;-73
2021/10/09 16:26:21;;;;;;;;;;;18.20;99.40;;;;;;5094873;28;19911;-73
2021/10/09 16:28:47;;;;;;;;;;;18.20;99.40;;;;;;5094548;28;19903;-73
2021/10/09 16:31:13;;;;;;;;;;;18.10;99.50;;;;;;5093145;28;20315;-73
2021/10/09 16:33:39;;;;;;;;;;;18.00;99.70;;;;;;5094468;28;19908;-74
2021/10/09 16:36:04;;;;;;;;;;;18.00;99.60;;;;;;5094408;28;20340;-73
2021/10/09 16:38:29;;;;;;;;;;;17.90;99.80;;;;;;5093932;28;20003;-73
2021/10/09 16:40:55;;;;;;;;;;;17.90;99.40;;;;;;5094434;28;19910;-72
2021/10/09 16:43:20;;;;;;;;;;;17.90;99.70;;;;;;5094274;28;19994;-73
2021/10/09 16:45:46;;;;;;;;;;;17.90;99.60;;;;;;5094506;28;20259;-74
2021/10/09 16:48:12;;;;;;;;;;;17.90;99.60;;;;;;5094230;28;19903;-73
2021/10/09 16:50:37;;;;;;;;;;;17.90;99.50;;;;;;5094360;28;19919;-74
2021/10/09 16:53:03;;;;;;;;;;;17.80;99.50;;;;;;5094131;28;19994;-73
2021/10/09 16:55:29;;;;;;;;;;;17.80;99.60;;;;;;5094366;28;19943;-72
2021/10/09 16:57:55;;;;;;;;;;;17.80;99.60;;;;;;5094026;28;19904;-73
2021/10/09 17:00:20;;;;;;;;;;;17.90;99.60;;;;;;5094272;28;19904;-74
2021/10/09 17:02:46;;;;;;;;;;;17.80;99.40;;;;;;5093964;28;20342;-73
2021/10/09 17:05:13;;;;;;;;;;;17.80;99.10;;;;;;5093937;28;19904;-73